We Are Winnipeg.

Screenshot by Matheson Shenher

Check out our new homepage below!  


  Upcoming Events

Snow Shuttle 2  February 13, 2021 21:00z

  Top Controllers this Month

James Norris 1405159
61:25

Todd Blanchette 1386032
59:27

Tim Lowe 1501600
44:10

Justin Martin 984292
34:53

Liam Shaw 1398752
18:05

  Online Controllers

No controllers online.

  Weather

CYWG - Winnipeg / James Armstrong Richardson International Airport  VFR
CYWG 220800Z 19008KT 15SM OVC110 M15/M18 A3009 RMK AC8 SLP212

CYXE - Saskatoon John G. Diefenbaker International Airport  VFR
CYXE 220839Z 30008KT 15SM FEW030 BKN120 M10/M12 A3004 RMK SC2AC5 SLP215

CYQT - Thunder Bay Airport  VFR
CYQT 220800Z 31011G17KT 15SM -SN FEW029 BKN039 M17/M22 A2999 RMK SC2SC5 SLP174

CYQR - Regina International Airport  VFR
CYQR 220800Z 27009KT 15SM -SHSN BKN130 M12/M14 A3003 RMK AC6 SLP216

CYMJ - Moose Jaw Air Vice Marshal C. M. McEwen Airport  MVFR
CYMJ 212012Z 33011KT 10SM -SHSN FEW013 OVC019 M11/M14 A3011 RMK SC2SC6 LAST OBS / NXT 221000 UTC SLP236

CYPG - Portage-la-Prairie / Southport Airport  VFR
CYPG 220100Z 25003KT 15SM FEW097 M15/M17 A3013 RMK AC2 LAST OBS/NEXT 221200 UTC SLP230